sensor_id;sensor_type;location;lat;lon;timestamp;pressure;altitude;pressure_sealevel;temperature;humidity
57248;BME280;55809;46.618;10.764;2023-04-28T00:00:48;93174.88;;;10.09;59.89
57248;BME280;55809;46.618;10.764;2023-04-28T00:03:16;93070.25;;;9.36;59.69
57248;BME280;55809;46.618;10.764;2023-04-28T00:05:43;93081.03;;;9.43;59.89
57248;BME280;55809;46.618;10.764;2023-04-28T00:08:12;93113.34;;;9.61;59.81
57248;BME280;55809;46.618;10.764;2023-04-28T00:10:39;93157.19;;;9.83;59.83
57248;BME280;55809;46.618;10.764;2023-04-28T00:13:06;93110.66;;;9.50;59.54
57248;BME280;55809;46.618;10.764;2023-04-28T00:15:33;93120.28;;;9.55;60.01
57248;BME280;55809;46.618;10.764;2023-04-28T00:18:01;93084.09;;;9.27;60.17
57248;BME280;55809;46.618;10.764;2023-04-28T00:20:28;93107.59;;;9.45;60.09
57248;BME280;55809;46.618;10.764;2023-04-28T00:22:56;93126.03;;;9.57;60.19
57248;BME280;55809;46.618;10.764;2023-04-28T00:25:24;93114.47;;;9.60;60.39
57248;BME280;55809;46.618;10.764;2023-04-28T00:27:51;93080.28;;;9.32;59.99
57248;BME280;55809;46.618;10.764;2023-04-28T00:30:21;93157.22;;;9.76;60.19
57248;BME280;55809;46.618;10.764;2023-04-28T00:32:49;93171.84;;;9.85;60.37
57248;BME280;55809;46.618;10.764;2023-04-28T00:35:17;93104.91;;;9.45;59.94
57248;BME280;55809;46.618;10.764;2023-04-28T00:37:44;93092.56;;;9.44;60.02
57248;BME280;55809;46.618;10.764;2023-04-28T00:40:11;93142.19;;;9.78;59.98
57248;BME280;55809;46.618;10.764;2023-04-28T00:42:41;93069.09;;;9.30;59.68
57248;BME280;55809;46.618;10.764;2023-04-28T00:45:08;93176.84;;;9.94;59.78
57248;BME280;55809;46.618;10.764;2023-04-28T00:47:36;93104.47;;;9.57;59.56
57248;BME280;55809;46.618;10.764;2023-04-28T00:50:05;93168.31;;;10.03;59.35
57248;BME280;55809;46.618;10.764;2023-04-28T00:52:32;93075.66;;;9.32;59.35
57248;BME280;55809;46.618;10.764;2023-04-28T00:54:59;93094.47;;;9.50;59.58
57248;BME280;55809;46.618;10.764;2023-04-28T00:57:26;93145.25;;;9.73;59.75
57248;BME280;55809;46.618;10.764;2023-04-28T00:59:55;93138.34;;;9.65;59.94
57248;BME280;55809;46.618;10.764;2023-04-28T01:02:22;93168.75;;;9.91;60.61
57248;BME280;55809;46.618;10.764;2023-04-28T01:04:50;93144.13;;;9.81;61.16
57248;BME280;55809;46.618;10.764;2023-04-28T01:07:18;93169.88;;;9.97;61.34
57248;BME280;55809;46.618;10.764;2023-04-28T01:09:45;93166.03;;;10.01;61.41
57248;BME280;55809;46.618;10.764;2023-04-28T01:12:14;93146.78;;;9.92;61.11
57248;BME280;55809;46.618;10.764;2023-04-28T01:14:41;93159.09;;;10.00;60.86
57248;BME280;55809;46.618;10.764;2023-04-28T01:17:09;93156.00;;;10.05;61.23
57248;BME280;55809;46.618;10.764;2023-04-28T01:19:37;93159.09;;;10.04;60.97
57248;BME280;55809;46.618;10.764;2023-04-28T01:22:06;93162.94;;;10.03;60.45
57248;BME280;55809;46.618;10.764;2023-04-28T01:24:36;93167.56;;;9.99;60.55
57248;BME280;55809;46.618;10.764;2023-04-28T01:27:03;93151.78;;;9.86;60.71
57248;BME280;55809;46.618;10.764;2023-04-28T01:29:30;93160.66;;;9.91;60.86
57248;BME280;55809;46.618;10.764;2023-04-28T01:31:57;93162.56;;;10.04;61.33
57248;BME280;55809;46.618;10.764;2023-04-28T01:34:25;93165.25;;;10.04;61.25
57248;BME280;55809;46.618;10.764;2023-04-28T01:36:52;93182.97;;;10.02;61.19
57248;BME280;55809;46.618;10.764;2023-04-28T01:39:18;93194.50;;;10.09;60.55
57248;BME280;55809;46.618;10.764;2023-04-28T01:41:47;93186.84;;;9.97;61.41
57248;BME280;55809;46.618;10.764;2023-04-28T01:44:14;93179.94;;;9.71;62.00
57248;BME280;55809;46.618;10.764;2023-04-28T01:46:41;93177.25;;;9.64;62.16
57248;BME280;55809;46.618;10.764;2023-04-28T01:49:08;93165.69;;;9.60;62.69
57248;BME280;55809;46.618;10.764;2023-04-28T01:51:35;93150.69;;;9.48;63.15
57248;BME280;55809;46.618;10.764;2023-04-28T01:54:01;93183.41;;;9.72;62.59
57248;BME280;55809;46.618;10.764;2023-04-28T01:56:28;93178.41;;;9.77;62.46
57248;BME280;55809;46.618;10.764;2023-04-28T01:58:57;93177.59;;;9.80;62.26
57248;BME280;55809;46.618;10.764;2023-04-28T02:01:24;93176.81;;;9.83;62.69
57248;BME280;55809;46.618;10.764;2023-04-28T02:03:51;93154.50;;;9.76;63.04
57248;BME280;55809;46.618;10.764;2023-04-28T02:06:19;93176.81;;;9.98;62.96
57248;BME280;55809;46.618;10.764;2023-04-28T02:08:46;93164.88;;;9.99;63.18
57248;BME280;55809;46.618;10.764;2023-04-28T02:11:13;93166.81;;;9.95;63.33
57248;BME280;55809;46.618;10.764;2023-04-28T02:13:40;93157.56;;;9.92;63.60
57248;BME280;55809;46.618;10.764;2023-04-28T02:16:08;93176.44;;;9.89;62.89
57248;BME280;55809;46.618;10.764;2023-04-28T02:18:35;93165.28;;;9.83;63.47
57248;BME280;55809;46.618;10.764;2023-04-28T02:21:07;93159.91;;;9.79;63.58
57248;BME280;55809;46.618;10.764;2023-04-28T02:23:35;93161.84;;;9.75;63.52
57248;BME280;55809;46.618;10.764;2023-04-28T02:26:05;93151.44;;;9.63;63.51
57248;BME280;55809;46.618;10.764;2023-04-28T02:28:32;93149.91;;;9.62;63.69
57248;BME280;55809;46.618;10.764;2023-04-28T02:31:05;93168.38;;;9.74;63.64
57248;BME280;55809;46.618;10.764;2023-04-28T02:33:34;93168.38;;;9.85;63.28
57248;BME280;55809;46.618;10.764;2023-04-28T02:36:03;93173.00;;;9.88;63.51
57248;BME280;55809;46.618;10.764;2023-04-28T02:38:30;93172.59;;;9.82;63.42
57248;BME280;55809;46.618;10.764;2023-04-28T02:40:57;93161.06;;;9.71;63.22
57248;BME280;55809;46.618;10.764;2023-04-28T02:43:25;93185.31;;;9.82;62.97
57248;BME280;55809;46.618;10.764;2023-04-28T02:45:52;93168.41;;;9.71;63.10
57248;BME280;55809;46.618;10.764;2023-04-28T02:48:19;93184.91;;;9.80;63.93
57248;BME280;55809;46.618;10.764;2023-04-28T02:50:48;93170.69;;;9.69;64.04
57248;BME280;55809;46.618;10.764;2023-04-28T02:53:15;93173.78;;;9.74;63.64
57248;BME280;55809;46.618;10.764;2023-04-28T02:55:42;93178.00;;;9.72;63.45
57248;BME280;55809;46.618;10.764;2023-04-28T02:58:09;93171.47;;;9.69;63.86
57248;BME280;55809;46.618;10.764;2023-04-28T03:00:36;93171.47;;;9.69;63.92
57248;BME280;55809;46.618;10.764;2023-04-28T03:03:03;93156.47;;;9.65;63.90
57248;BME280;55809;46.618;10.764;2023-04-28T03:05:30;93115.66;;;9.37;64.20
57248;BME280;55809;46.618;10.764;2023-04-28T03:07:58;93161.47;;;9.55;65.01
57248;BME280;55809;46.618;10.764;2023-04-28T03:10:26;93153.75;;;9.50;65.88
57248;BME280;55809;46.618;10.764;2023-04-28T03:12:53;93154.53;;;9.44;66.01
57248;BME280;55809;46.618;10.764;2023-04-28T03:15:20;93168.41;;;9.31;64.88
57248;BME280;55809;46.618;10.764;2023-04-28T03:17:46;93163.38;;;9.26;65.22
57248;BME280;55809;46.618;10.764;2023-04-28T03:20:13;93170.69;;;9.29;65.67
57248;BME280;55809;46.618;10.764;2023-04-28T03:22:41;93175.69;;;9.27;65.33
57248;BME280;55809;46.618;10.764;2023-04-28T03:25:09;93168.38;;;9.17;65.77
57248;BME280;55809;46.618;10.764;2023-04-28T03:27:36;93172.59;;;9.07;66.03
57248;BME280;55809;46.618;10.764;2023-04-28T03:30:04;93167.59;;;9.16;66.40
57248;BME280;55809;46.618;10.764;2023-04-28T03:32:32;93158.34;;;9.21;67.37
57248;BME280;55809;46.618;10.764;2023-04-28T03:34:59;93158.38;;;9.39;67.42
57248;BME280;55809;46.618;10.764;2023-04-28T03:37:26;93156.09;;;9.45;66.90
57248;BME280;55809;46.618;10.764;2023-04-28T03:39:53;93158.38;;;9.53;65.95
57248;BME280;55809;46.618;10.764;2023-04-28T03:42:21;93166.47;;;9.46;66.12
57248;BME280;55809;46.618;10.764;2023-04-28T03:44:48;93156.84;;;9.49;66.54
57248;BME280;55809;46.618;10.764;2023-04-28T03:47:14;93151.81;;;9.47;65.78
57248;BME280;55809;46.618;10.764;2023-04-28T03:49:41;93158.00;;;9.66;64.91
57248;BME280;55809;46.618;10.764;2023-04-28T03:52:08;93159.13;;;9.57;64.65
57248;BME280;55809;46.618;10.764;2023-04-28T03:54:35;93166.09;;;9.62;65.31
57248;BME280;55809;46.618;10.764;2023-04-28T03:57:02;93154.91;;;9.49;66.39
57248;BME280;55809;46.618;10.764;2023-04-28T03:59:30;93162.59;;;9.47;66.56
57248;BME280;55809;46.618;10.764;2023-04-28T04:01:57;93152.59;;;9.33;66.65
57248;BME280;55809;46.618;10.764;2023-04-28T04:04:24;93177.63;;;9.30;67.07
57248;BME280;55809;46.618;10.764;2023-04-28T04:06:51;93187.63;;;9.19;67.28
57248;BME280;55809;46.618;10.764;2023-04-28T04:09:18;93197.22;;;9.13;67.55
57248;BME280;55809;46.618;10.764;2023-04-28T04:11:45;93199.16;;;9.20;67.22
57248;BME280;55809;46.618;10.764;2023-04-28T04:14:12;93189.16;;;9.27;66.86
57248;BME280;55809;46.618;10.764;2023-04-28T04:16:40;93186.09;;;9.39;66.66
57248;BME280;55809;46.618;10.764;2023-04-28T04:19:07;93163.00;;;9.31;66.04
57248;BME280;55809;46.618;10.764;2023-04-28T04:21:34;93190.69;;;9.60;65.62
57248;BME280;55809;46.618;10.764;2023-04-28T04:24:01;93185.34;;;9.71;65.77
57248;BME280;55809;46.618;10.764;2023-04-28T04:26:28;93178.41;;;9.77;66.13
57248;BME280;55809;46.618;10.764;2023-04-28T04:28:57;93180.31;;;9.88;66.74
57248;BME280;55809;46.618;10.764;2023-04-28T04:31:24;93116.41;;;9.59;66.51
57248;BME280;55809;46.618;10.764;2023-04-28T04:33:52;93164.47;;;9.97;66.34
57248;BME280;55809;46.618;10.764;2023-04-28T04:36:19;93162.19;;;9.95;66.38
57248;BME280;55809;46.618;10.764;2023-04-28T04:38:45;93171.06;;;9.92;66.19
57248;BME280;55809;46.618;10.764;2023-04-28T04:41:12;93174.91;;;9.95;70.35
57248;BME280;55809;46.618;10.764;2023-04-28T04:43:39;93140.66;;;9.56;67.44
57248;BME280;55809;46.618;10.764;2023-04-28T04:46:06;93097.59;;;9.09;67.61
57248;BME280;55809;46.618;10.764;2023-04-28T04:48:33;93098.31;;;8.85;68.71
57248;BME280;55809;46.618;10.764;2023-04-28T04:51:01;93131.44;;;9.07;70.94
57248;BME280;55809;46.618;10.764;2023-04-28T04:53:28;93147.22;;;9.23;70.74
57248;BME280;55809;46.618;10.764;2023-04-28T04:55:55;93117.97;;;9.14;70.17
57248;BME280;55809;46.618;10.764;2023-04-28T04:58:23;93126.44;;;9.34;69.99
57248;BME280;55809;46.618;10.764;2023-04-28T05:00:50;93124.13;;;9.43;69.83
57248;BME280;55809;46.618;10.764;2023-04-28T05:03:17;93105.28;;;9.39;69.44
57248;BME280;55809;46.618;10.764;2023-04-28T05:05:44;93156.03;;;9.77;70.02
57248;BME280;55809;46.618;10.764;2023-04-28T05:08:12;93170.28;;;9.95;70.38
57248;BME280;55809;46.618;10.764;2023-04-28T05:10:39;93065.63;;;9.33;70.34
57248;BME280;55809;46.618;10.764;2023-04-28T05:13:06;93111.00;;;9.70;70.30
57248;BME280;55809;46.618;10.764;2023-04-28T05:15:33;93056.03;;;9.32;70.24
57248;BME280;55809;46.618;10.764;2023-04-28T05:18:00;93083.31;;;9.59;69.67
57248;BME280;55809;46.618;10.764;2023-04-28T05:20:34;93106.38;;;9.85;69.35
57248;BME280;55809;46.618;10.764;2023-04-28T05:23:01;93147.50;;;10.21;68.88
57248;BME280;55809;46.618;10.764;2023-04-28T05:25:29;93132.47;;;10.20;68.36
57248;BME280;55809;46.618;10.764;2023-04-28T05:27:57;93121.69;;;10.27;67.35
57248;BME280;55809;46.618;10.764;2023-04-28T05:30:27;93069.75;;;9.95;66.97
57248;BME280;55809;46.618;10.764;2023-04-28T05:32:54;93074.38;;;9.91;66.53
57248;BME280;55809;46.618;10.764;2023-04-28T05:35:21;93138.25;;;10.26;66.88
57248;BME280;55809;46.618;10.764;2023-04-28T05:37:48;93173.28;;;10.40;67.34
57248;BME280;55809;46.618;10.764;2023-04-28T05:40:15;93178.69;;;10.33;67.75
57248;BME280;55809;46.618;10.764;2023-04-28T05:42:44;93181.41;;;10.37;67.61
57248;BME280;55809;46.618;10.764;2023-04-28T05:45:11;93168.69;;;10.26;68.97
57248;BME280;55809;46.618;10.764;2023-04-28T05:47:38;93186.38;;;10.42;68.73
57248;BME280;55809;46.618;10.764;2023-04-28T05:50:06;93184.44;;;10.46;69.00
57248;BME280;55809;46.618;10.764;2023-04-28T05:52:33;93181.38;;;10.44;68.07
57248;BME280;55809;46.618;10.764;2023-04-28T05:54:59;93178.25;;;10.49;67.51
57248;BME280;55809;46.618;10.764;2023-04-28T05:57:26;93177.06;;;10.57;67.13
57248;BME280;55809;46.618;10.764;2023-04-28T05:59:55;93176.63;;;10.66;67.00
57248;BME280;55809;46.618;10.764;2023-04-28T06:02:21;93182.00;;;10.76;68.17
57248;BME280;55809;46.618;10.764;2023-04-28T06:04:48;93168.88;;;10.78;66.26
57248;BME280;55809;46.618;10.764;2023-04-28T06:07:15;93179.63;;;10.93;64.65
57248;BME280;55809;46.618;10.764;2023-04-28T06:09:42;93184.19;;;11.03;63.01
57248;BME280;55809;46.618;10.764;2023-04-28T06:12:09;93181.34;;;11.24;59.77
57248;BME280;55809;46.618;10.764;2023-04-28T06:14:36;93167.84;;;11.21;60.46
57248;BME280;55809;46.618;10.764;2023-04-28T06:17:06;93167.97;;;11.07;61.26
57248;BME280;55809;46.618;10.764;2023-04-28T06:19:34;93214.25;;;11.12;67.13
57248;BME280;55809;46.618;10.764;2023-04-28T06:22:01;93220.16;;;10.82;68.84
57248;BME280;55809;46.618;10.764;2023-04-28T06:24:28;93222.19;;;10.46;69.17
57248;BME280;55809;46.618;10.764;2023-04-28T06:26:55;93222.59;;;10.44;69.81
57248;BME280;55809;46.618;10.764;2023-04-28T06:29:22;93226.03;;;10.52;69.63
57248;BME280;55809;46.618;10.764;2023-04-28T06:31:49;93216.00;;;10.67;67.85
57248;BME280;55809;46.618;10.764;2023-04-28T06:34:18;93219.81;;;10.69;66.97
57248;BME280;55809;46.618;10.764;2023-04-28T06:36:45;93221.75;;;10.69;66.36
57248;BME280;55809;46.618;10.764;2023-04-28T06:39:12;93217.47;;;10.78;64.67
57248;BME280;55809;46.618;10.764;2023-04-28T06:41:39;93218.56;;;10.92;63.70
57248;BME280;55809;46.618;10.764;2023-04-28T06:44:06;93222.78;;;11.00;62.26
57248;BME280;55809;46.618;10.764;2023-04-28T06:46:33;93217.38;;;11.00;62.20
57248;BME280;55809;46.618;10.764;2023-04-28T06:49:00;93226.22;;;11.08;62.00
57248;BME280;55809;46.618;10.764;2023-04-28T06:51:29;93218.84;;;11.19;61.98
57248;BME280;55809;46.618;10.764;2023-04-28T06:53:57;93209.56;;;11.20;62.00
57248;BME280;55809;46.618;10.764;2023-04-28T06:56:24;93215.69;;;11.27;61.38
57248;BME280;55809;46.618;10.764;2023-04-28T06:58:54;93211.84;;;11.21;62.87
57248;BME280;55809;46.618;10.764;2023-04-28T07:01:21;93222.72;;;11.14;62.86
57248;BME280;55809;46.618;10.764;2023-04-28T07:03:48;93231.19;;;11.20;62.97
57248;BME280;55809;46.618;10.764;2023-04-28T07:06:15;93223.44;;;11.22;63.02
57248;BME280;55809;46.618;10.764;2023-04-28T07:08:44;93219.16;;;11.28;62.33
57248;BME280;55809;46.618;10.764;2023-04-28T07:11:11;93224.19;;;11.30;63.20
57248;BME280;55809;46.618;10.764;2023-04-28T07:13:38;93220.28;;;11.31;63.92
57248;BME280;55809;46.618;10.764;2023-04-28T07:16:05;93202.19;;;11.24;63.29
57248;BME280;55809;46.618;10.764;2023-04-28T07:18:34;93218.75;;;11.33;62.98
57248;BME280;55809;46.618;10.764;2023-04-28T07:21:01;93218.78;;;11.30;63.75
57248;BME280;55809;46.618;10.764;2023-04-28T07:23:28;93215.66;;;11.31;63.97
57248;BME280;55809;46.618;10.764;2023-04-28T07:25:56;93216.81;;;11.34;64.53
57248;BME280;55809;46.618;10.764;2023-04-28T07:28:24;93215.25;;;11.36;64.34
57248;BME280;55809;46.618;10.764;2023-04-28T07:30:51;93195.66;;;11.21;64.44
57248;BME280;55809;46.618;10.764;2023-04-28T07:33:18;93215.63;;;11.42;65.06
57248;BME280;55809;46.618;10.764;2023-04-28T07:35:45;93210.97;;;11.42;63.80
57248;BME280;55809;46.618;10.764;2023-04-28T07:38:12;93208.63;;;11.44;64.33
57248;BME280;55809;46.618;10.764;2023-04-28T07:40:41;93198.22;;;11.43;64.68
57248;BME280;55809;46.618;10.764;2023-04-28T07:43:09;93222.00;;;11.66;64.22
57248;BME280;55809;46.618;10.764;2023-04-28T07:45:38;93205.06;;;11.58;63.49
57248;BME280;55809;46.618;10.764;2023-04-28T07:48:05;93214.28;;;11.64;64.17
57248;BME280;55809;46.618;10.764;2023-04-28T07:50:32;93213.97;;;11.51;64.78
57248;BME280;55809;46.618;10.764;2023-04-28T07:52:59;93211.72;;;11.46;65.45
57248;BME280;55809;46.618;10.764;2023-04-28T07:55:26;93198.19;;;11.46;65.33
57248;BME280;55809;46.618;10.764;2023-04-28T07:57:53;93205.78;;;11.66;65.16
57248;BME280;55809;46.618;10.764;2023-04-28T08:00:23;93206.97;;;11.65;65.45
57248;BME280;55809;46.618;10.764;2023-04-28T08:02:50;93213.84;;;11.73;65.01
57248;BME280;55809;46.618;10.764;2023-04-28T08:05:17;93183.28;;;11.76;65.01
57248;BME280;55809;46.618;10.764;2023-04-28T08:07:44;93199.31;;;12.42;64.66
57248;BME280;55809;46.618;10.764;2023-04-28T08:10:11;93188.28;;;13.22;61.56
57248;BME280;55809;46.618;10.764;2023-04-28T08:12:38;93171.72;;;13.47;59.64
57248;BME280;55809;46.618;10.764;2023-04-28T08:15:09;93194.78;;;14.52;56.86
57248;BME280;55809;46.618;10.764;2023-04-28T08:17:38;93186.78;;;14.85;55.48
57248;BME280;55809;46.618;10.764;2023-04-28T08:20:06;93180.59;;;14.85;55.71
57248;BME280;55809;46.618;10.764;2023-04-28T08:22:33;93179.00;;;15.04;55.72
57248;BME280;55809;46.618;10.764;2023-04-28T08:25:00;93176.13;;;15.67;54.82
57248;BME280;55809;46.618;10.764;2023-04-28T08:27:27;93169.13;;;15.82;53.16
57248;BME280;55809;46.618;10.764;2023-04-28T08:29:54;93180.38;;;15.84;53.65
57248;BME280;55809;46.618;10.764;2023-04-28T08:32:21;93185.81;;;16.01;52.72
57248;BME280;55809;46.618;10.764;2023-04-28T08:34:50;93159.84;;;16.12;51.86
57248;BME280;55809;46.618;10.764;2023-04-28T08:37:17;93146.22;;;15.31;52.87
57248;BME280;55809;46.618;10.764;2023-04-28T08:39:45;93183.97;;;15.45;54.17
57248;BME280;55809;46.618;10.764;2023-04-28T08:42:12;93174.84;;;15.35;53.49
57248;BME280;55809;46.618;10.764;2023-04-28T08:44:39;93167.19;;;15.14;54.76
57248;BME280;55809;46.618;10.764;2023-04-28T08:47:13;93173.81;;;14.73;55.52
57248;BME280;55809;46.618;10.764;2023-04-28T08:49:40;93168.34;;;14.33;56.73
57248;BME280;55809;46.618;10.764;2023-04-28T08:52:11;93163.94;;;14.19;58.69
57248;BME280;55809;46.618;10.764;2023-04-28T08:54:39;93160.31;;;14.26;56.96
57248;BME280;55809;46.618;10.764;2023-04-28T08:57:07;93159.13;;;14.27;56.53
57248;BME280;55809;46.618;10.764;2023-04-28T08:59:37;93165.22;;;14.35;58.89
57248;BME280;55809;46.618;10.764;2023-04-28T09:02:06;93158.94;;;14.38;58.34
57248;BME280;55809;46.618;10.764;2023-04-28T09:04:33;93153.31;;;14.28;57.38
57248;BME280;55809;46.618;10.764;2023-04-28T09:07:00;93154.84;;;14.49;57.90
57248;BME280;55809;46.618;10.764;2023-04-28T09:09:29;93154.50;;;14.67;56.20
57248;BME280;55809;46.618;10.764;2023-04-28T09:11:57;93129.28;;;15.39;54.08
57248;BME280;55809;46.618;10.764;2023-04-28T09:14:25;93144.41;;;15.93;52.75
57248;BME280;55809;46.618;10.764;2023-04-28T09:16:53;93147.69;;;16.01;52.43
57248;BME280;55809;46.618;10.764;2023-04-28T09:19:20;93143.28;;;16.07;52.46
57248;BME280;55809;46.618;10.764;2023-04-28T09:21:48;93145.63;;;16.05;51.80
57248;BME280;55809;46.618;10.764;2023-04-28T09:24:26;93136.44;;;15.66;50.88
57248;BME280;55809;46.618;10.764;2023-04-28T09:26:54;93132.72;;;15.60;51.80
57248;BME280;55809;46.618;10.764;2023-04-28T09:29:23;93137.31;;;15.79;52.46
57248;BME280;55809;46.618;10.764;2023-04-28T09:31:50;93129.00;;;15.70;52.47
57248;BME280;55809;46.618;10.764;2023-04-28T09:34:17;93123.94;;;15.36;53.89
57248;BME280;55809;46.618;10.764;2023-04-28T09:36:44;93144.94;;;15.35;55.60
57248;BME280;55809;46.618;10.764;2023-04-28T09:39:11;93144.31;;;15.11;55.63
57248;BME280;55809;46.618;10.764;2023-04-28T09:41:38;93129.47;;;14.96;53.94
57248;BME280;55809;46.618;10.764;2023-04-28T09:44:11;93134.69;;;15.07;55.14
57248;BME280;55809;46.618;10.764;2023-04-28T09:46:38;93139.47;;;15.71;53.23
57248;BME280;55809;46.618;10.764;2023-04-28T09:49:06;93127.88;;;16.46;52.24
57248;BME280;55809;46.618;10.764;2023-04-28T09:51:33;93137.13;;;16.77;50.53
57248;BME280;55809;46.618;10.764;2023-04-28T09:54:01;93122.91;;;16.99;51.08
57248;BME280;55809;46.618;10.764;2023-04-28T09:56:32;93096.81;;;17.10;51.43
57248;BME280;55809;46.618;10.764;2023-04-28T09:59:03;93092.81;;;17.41;48.25
57248;BME280;55809;46.618;10.764;2023-04-28T10:01:36;93113.38;;;17.93;49.58
57248;BME280;55809;46.618;10.764;2023-04-28T10:04:04;93101.91;;;17.98;48.80
57248;BME280;55809;46.618;10.764;2023-04-28T10:06:33;93053.06;;;17.27;47.81
57248;BME280;55809;46.618;10.764;2023-04-28T10:09:02;93078.59;;;17.07;50.59
57248;BME280;55809;46.618;10.764;2023-04-28T10:11:29;93096.81;;;16.98;49.86
57248;BME280;55809;46.618;10.764;2023-04-28T10:13:58;93065.88;;;16.62;50.70
57248;BME280;55809;46.618;10.764;2023-04-28T10:16:26;93080.66;;;16.91;50.06
57248;BME280;55809;46.618;10.764;2023-04-28T10:18:58;93044.03;;;17.04;51.48
57248;BME280;55809;46.618;10.764;2023-04-28T10:21:28;93079.44;;;17.68;50.06
57248;BME280;55809;46.618;10.764;2023-04-28T10:24:08;93069.00;;;17.28;49.21
57248;BME280;55809;46.618;10.764;2023-04-28T10:27:01;93066.38;;;16.45;49.68
57248;BME280;55809;46.618;10.764;2023-04-28T10:29:33;93061.94;;;16.22;51.91
57248;BME280;55809;46.618;10.764;2023-04-28T10:32:20;93072.66;;;16.00;51.52
57248;BME280;55809;46.618;10.764;2023-04-28T10:34:50;93061.13;;;15.79;53.14
57248;BME280;55809;46.618;10.764;2023-04-28T10:37:20;93075.84;;;15.49;53.32
57248;BME280;55809;46.618;10.764;2023-04-28T10:40:30;93049.25;;;15.08;54.90
57248;BME280;55809;46.618;10.764;2023-04-28T10:42:58;93055.69;;;15.14;55.05
57248;BME280;55809;46.618;10.764;2023-04-28T10:45:58;93067.31;;;14.98;55.22
57248;BME280;55809;46.618;10.764;2023-04-28T10:48:55;93073.97;;;14.77;56.16
57248;BME280;55809;46.618;10.764;2023-04-28T10:51:30;93075.53;;;14.38;56.48
57248;BME280;55809;46.618;10.764;2023-04-28T10:54:17;93055.19;;;14.46;57.10
57248;BME280;55809;46.618;10.764;2023-04-28T10:57:16;93063.47;;;14.39;56.82
57248;BME280;55809;46.618;10.764;2023-04-28T10:59:44;93076.84;;;14.50;58.30
57248;BME280;55809;46.618;10.764;2023-04-28T11:02:39;93078.03;;;14.49;58.31
57248;BME280;55809;46.618;10.764;2023-04-28T11:05:18;93078.94;;;14.22;58.55
57248;BME280;55809;46.618;10.764;2023-04-28T11:11:24;93086.91;;;13.90;58.82
57248;BME280;55809;46.618;10.764;2023-04-28T11:13:51;93076.09;;;13.66;59.56
57248;BME280;55809;46.618;10.764;2023-04-28T11:16:21;93088.47;;;13.67;60.25
57248;BME280;55809;46.618;10.764;2023-04-28T11:18:57;93075.97;;;13.73;60.39
57248;BME280;55809;46.618;10.764;2023-04-28T11:21:29;93087.13;;;13.79;60.27
57248;BME280;55809;46.618;10.764;2023-04-28T11:23:57;93076.38;;;13.95;59.90
57248;BME280;55809;46.618;10.764;2023-04-28T11:26:26;93065.41;;;13.79;60.84
57248;BME280;55809;46.618;10.764;2023-04-28T11:28:55;93079.00;;;13.99;60.92
57248;BME280;55809;46.618;10.764;2023-04-28T11:31:24;93069.53;;;14.07;60.88
57248;BME280;55809;46.618;10.764;2023-04-28T11:33:53;93067.03;;;14.36;61.29
57248;BME280;55809;46.618;10.764;2023-04-28T11:36:25;93070.59;;;14.89;60.27
57248;BME280;55809;46.618;10.764;2023-04-28T11:38:53;93068.09;;;14.98;59.50
57248;BME280;55809;46.618;10.764;2023-04-28T11:41:22;93070.81;;;14.98;58.88
57248;BME280;55809;46.618;10.764;2023-04-28T11:43:51;93045.91;;;14.64;58.96
57248;BME280;55809;46.618;10.764;2023-04-28T11:46:18;93056.19;;;14.56;59.86
57248;BME280;55809;46.618;10.764;2023-04-28T11:48:47;93058.25;;;14.68;59.18
57248;BME280;55809;46.618;10.764;2023-04-28T11:51:31;93059.94;;;14.62;59.40
57248;BME280;55809;46.618;10.764;2023-04-28T11:53:59;93056.19;;;14.36;58.43
57248;BME280;55809;46.618;10.764;2023-04-28T11:56:27;93031.91;;;14.09;59.66
57248;BME280;55809;46.618;10.764;2023-04-28T11:59:02;93048.72;;;14.40;59.01
57248;BME280;55809;46.618;10.764;2023-04-28T12:01:31;93041.97;;;14.48;58.16
57248;BME280;55809;46.618;10.764;2023-04-28T12:03:59;93032.00;;;14.42;59.10
57248;BME280;55809;46.618;10.764;2023-04-28T12:06:26;93016.63;;;14.35;60.15
57248;BME280;55809;46.618;10.764;2023-04-28T12:08:54;93046.00;;;14.60;59.95
57248;BME280;55809;46.618;10.764;2023-04-28T12:11:21;93035.69;;;14.71;58.49
57248;BME280;55809;46.618;10.764;2023-04-28T12:14:08;93032.72;;;14.82;59.17
57248;BME280;55809;46.618;10.764;2023-04-28T12:16:37;93020.75;;;14.80;58.47
57248;BME280;55809;46.618;10.764;2023-04-28T12:19:07;93018.44;;;14.62;58.39
57248;BME280;55809;46.618;10.764;2023-04-28T12:21:35;93036.28;;;14.79;58.68
57248;BME280;55809;46.618;10.764;2023-04-28T12:24:15;93009.69;;;14.70;58.39
57248;BME280;55809;46.618;10.764;2023-04-28T12:26:42;93027.13;;;14.89;59.15
57248;BME280;55809;46.618;10.764;2023-04-28T12:29:34;93024.25;;;14.96;58.84
57248;BME280;55809;46.618;10.764;2023-04-28T12:32:02;93021.44;;;15.00;58.28
57248;BME280;55809;46.618;10.764;2023-04-28T12:34:29;93023.66;;;14.89;58.25
57248;BME280;55809;46.618;10.764;2023-04-28T12:36:58;93025.94;;;14.90;58.46
57248;BME280;55809;46.618;10.764;2023-04-28T12:39:25;92978.72;;;14.68;58.78
57248;BME280;55809;46.618;10.764;2023-04-28T12:41:55;93032.38;;;14.96;57.44
57248;BME280;55809;46.618;10.764;2023-04-28T12:44:31;93032.91;;;14.91;56.68
57248;BME280;55809;46.618;10.764;2023-04-28T12:47:01;93027.13;;;14.89;56.93
57248;BME280;55809;46.618;10.764;2023-04-28T12:49:28;93031.97;;;14.82;57.14
57248;BME280;55809;46.618;10.764;2023-04-28T12:51:59;93039.19;;;14.88;56.62
57248;BME280;55809;46.618;10.764;2023-04-28T12:54:26;93030.00;;;14.82;56.93
57248;BME280;55809;46.618;10.764;2023-04-28T12:56:52;92992.63;;;14.70;57.60
57248;BME280;55809;46.618;10.764;2023-04-28T12:59:20;92977.25;;;14.63;56.85
57248;BME280;55809;46.618;10.764;2023-04-28T13:01:50;93015.31;;;14.96;56.48
57248;BME280;55809;46.618;10.764;2023-04-28T13:04:20;92987.03;;;14.77;57.60
57248;BME280;55809;46.618;10.764;2023-04-28T13:06:48;93008.28;;;14.98;56.02